Tonganoxie, KS

8:14 PM CDT on August 28, 2015 (GMT -0500)
KTGX | | Change Station
CLOSE
Current Station
Personal Weather Station
Location: Tonganoxie, KS
Elevation: 861 ft
Nearby Weather Stations

Elev 861 ft 39.12 °N, 95.06 °W | Updated 9 seconds ago

Partly Cloudy
Partly Cloudy
73.7 °F
Feels Like 72 °F
N
1.0
Wind Variable Wind from SSW
Gusts 10.0 mph

Today
High -- | Low -- °F
--% Chance of Precip.
Yesterday
High -- | Low -- °F
Precip. -- in
6:45 AM 7:57 PM
Waxing Gibbous, 99% visible
Pressure 29.87 in
Visibility 10.0 miles
Clouds Scattered Clouds 7000 ft
Overcast 8500 ft
Heat Index 72 °F
Dew Point 70 °F
Humidity 89%
Rainfall 0.60 in
Snow Depth Not available.
UV 0 out of 12
Pollen 4.70 out of 12
Air Quality Not available.
Flu Activity Not available.
METAR KLWC 290052Z AUTO 17007KT 10SM SCT070 OVC085 23/19 A2989 RMK AO2 SLP115 T02330189
Pressure 29.87 in
Visibility 10.0 miles
Clouds Scattered Clouds 7000 ft
Overcast 8500 ft
Heat Index 72 °F
Dew Point 70 °F
Humidity 89%
Rainfall 0.60 in
Snow Depth Not available.
UV 0 out of 12
Pollen 4.70 out of 12
Air Quality Not available.
Flu Activity Not available.
METAR KLWC 290052Z AUTO 17007KT 10SM SCT070 OVC085 23/19 A2989 RMK AO2 SLP115 T02330189

10-Day Weather Forecast

×

Almanac

Astronomy

Aug. 28, 2015 Rise Set
Actual Time
Civil Twilight
Nautical Twilight
Astronomical Twilight
Moon
Length of Visible Light
Length of Day
Tomorrow will be .
, % of the Moon is Illuminated

Today's Extremes

State Highs State Lows

Community

WunderPhotos

Upload Photos

1,850,561 photos uploaded!

WunderBlogs® & News

Nearby

Air Quality

  Air Quality AQ Index Pollutant
Not available.

Snow Depth

Station Depth Elevation

Earthquake Activity

City Distance Mag. Time & Date
Minimum magnitude displayed is 2.5.

Coastal Water Temperatures

Place Temperature

Stations

Nearby Weather Stations

Station Location Temp. Windchill Dew Point Humidity Wind Precip. Elev Updated Type